createdAt,value
2023-02-13T00:00:21.378Z,0.85
2023-02-13T00:02:48.153Z,0.97
2023-02-13T00:05:15.181Z,0.79
2023-02-13T00:07:41.900Z,0.89
2023-02-13T00:10:09.298Z,0.79
2023-02-13T00:12:36.317Z,0.90
2023-02-13T00:15:03.476Z,0.90
2023-02-13T00:17:30.499Z,0.66
2023-02-13T00:19:57.157Z,0.54
2023-02-13T00:22:24.504Z,0.50
2023-02-13T00:24:51.516Z,0.41
2023-02-13T00:27:18.277Z,0.40
2023-02-13T00:29:45.068Z,0.24
2023-02-13T00:32:12.149Z,0.16
2023-02-13T00:34:38.969Z,0.32
2023-02-13T00:37:05.763Z,0.43
2023-02-13T00:39:32.402Z,0.48
2023-02-13T00:41:59.084Z,0.62
2023-02-13T00:44:25.702Z,0.75
2023-02-13T00:46:52.431Z,0.83
2023-02-13T00:49:19.109Z,0.87
2023-02-13T00:51:45.808Z,0.93
2023-02-13T00:54:12.494Z,1.06
2023-02-13T00:56:39.185Z,1.09
2023-02-13T00:59:06.199Z,1.09
2023-02-13T01:01:32.885Z,0.80
2023-02-13T01:03:59.692Z,0.81
2023-02-13T01:06:26.417Z,0.74
2023-02-13T01:08:53.062Z,0.71
2023-02-13T01:11:19.855Z,0.71
2023-02-13T01:13:46.623Z,0.65
2023-02-13T01:16:16.070Z,0.44
2023-02-13T01:18:42.915Z,0.50
2023-02-13T01:24:10.912Z,0.40
2023-02-13T01:26:37.641Z,0.14
2023-02-13T01:29:04.345Z,-0.03
2023-02-13T01:31:31.081Z,-0.12
2023-02-13T01:33:58.988Z,-0.27
2023-02-13T01:36:26.892Z,-0.24
2023-02-13T01:38:56.398Z,-0.39
2023-02-13T01:41:24.369Z,-0.42
2023-02-13T01:43:55.363Z,-0.37
2023-02-13T01:46:28.010Z,-0.35
2023-02-13T01:48:58.509Z,-0.37
2023-02-13T01:51:30.736Z,-0.32
2023-02-13T01:54:06.151Z,-0.49
2023-02-13T01:56:37.761Z,-0.49
2023-02-13T01:59:11.652Z,-0.43
2023-02-13T02:01:38.620Z,-0.44
2023-02-13T02:04:10.501Z,-0.26
2023-02-13T02:06:49.735Z,-0.27
2023-02-13T02:09:20.719Z,-0.24
2023-02-13T02:12:00.888Z,0.04
2023-02-13T02:14:28.354Z,0.19
2023-02-13T02:16:56.062Z,0.05
2023-02-13T02:19:37.563Z,0.19
2023-02-13T02:22:19.265Z,0.26
2023-02-13T02:25:03.299Z,0.28
2023-02-13T02:27:59.426Z,0.18
2023-02-13T02:30:44.461Z,0.02
2023-02-13T02:33:40.480Z,-0.21
2023-02-13T02:36:27.201Z,-0.43
2023-02-13T02:39:19.989Z,-0.41
2023-02-13T02:41:49.220Z,-0.58
2023-02-13T02:44:43.552Z,-0.58
2023-02-13T02:48:00.362Z,-0.56
2023-02-13T02:50:32.527Z,-0.31
2023-02-13T02:53:41.103Z,-0.14
2023-02-13T02:56:22.653Z,-0.12
2023-02-13T02:59:25.438Z,0.04
2023-02-13T03:02:13.847Z,-0.03
2023-02-13T03:05:02.785Z,-0.19
2023-02-13T03:07:29.446Z,-0.38
2023-02-13T03:10:22.328Z,-0.28
2023-02-13T03:13:36.877Z,-0.34
2023-02-13T03:16:22.800Z,-0.10
2023-02-13T03:19:14.947Z,-0.21
2023-02-13T03:22:20.454Z,-0.53
2023-02-13T03:25:05.835Z,-0.76
2023-02-13T03:28:20.270Z,-0.94
2023-02-13T03:31:04.144Z,-0.97
2023-02-13T03:33:43.435Z,-0.89
2023-02-13T03:36:47.560Z,-0.80
2023-02-13T03:39:34.040Z,-0.72
2023-02-13T03:42:04.266Z,-0.51
2023-02-13T03:45:11.101Z,-0.53
2023-02-13T03:47:39.241Z,-0.57
2023-02-13T03:50:09.169Z,-0.45
2023-02-13T03:53:17.439Z,-0.19
2023-02-13T03:56:06.334Z,-0.44
2023-02-13T03:58:57.934Z,-0.56
2023-02-13T04:01:29.387Z,-0.88
2023-02-13T04:04:31.450Z,-0.88
2023-02-13T04:07:03.032Z,-0.70
2023-02-13T04:09:32.024Z,-0.72
2023-02-13T04:12:06.374Z,-0.62
2023-02-13T04:15:15.051Z,-0.50
2023-02-13T04:17:56.794Z,-0.68
2023-02-13T04:20:27.711Z,-0.67
2023-02-13T04:22:54.401Z,-0.49
2023-02-13T04:25:21.499Z,-0.42
2023-02-13T04:27:48.255Z,-0.37
2023-02-13T04:30:15.268Z,-0.50
2023-02-13T04:32:41.997Z,-0.75
2023-02-13T04:35:09.510Z,-0.86
2023-02-13T04:37:36.275Z,-0.88
2023-02-13T04:40:02.949Z,-1.05
2023-02-13T04:42:29.653Z,-1.17
2023-02-13T04:44:56.334Z,-1.32
2023-02-13T04:47:23.053Z,-1.29
2023-02-13T04:49:57.254Z,-1.36
2023-02-13T04:52:23.900Z,-1.40
2023-02-13T04:54:50.787Z,-1.63
2023-02-13T04:57:17.529Z,-1.73
2023-02-13T04:59:44.224Z,-1.70
2023-02-13T05:02:10.925Z,-1.68
2023-02-13T05:04:37.732Z,-1.69
2023-02-13T05:07:04.428Z,-1.49
2023-02-13T05:09:31.112Z,-1.42
2023-02-13T05:12:03.939Z,-1.67
2023-02-13T05:14:30.882Z,-1.45
2023-02-13T05:16:57.607Z,-1.33
2023-02-13T05:19:24.264Z,-1.22
2023-02-13T05:22:09.699Z,-1.19
2023-02-13T05:24:36.430Z,-1.08
2023-02-13T05:27:03.170Z,-0.83
2023-02-13T05:29:29.823Z,-0.79
2023-02-13T05:31:58.543Z,-0.91
2023-02-13T05:34:27.477Z,-0.88
2023-02-13T05:36:55.091Z,-0.94
2023-02-13T05:39:22.089Z,-1.32
2023-02-13T05:41:49.667Z,-1.60
2023-02-13T05:44:16.807Z,-1.40
2023-02-13T05:46:45.103Z,-1.62
2023-02-13T05:49:13.524Z,-1.65
2023-02-13T05:51:40.318Z,-1.56
2023-02-13T05:54:07.041Z,-1.47
2023-02-13T05:56:33.793Z,-1.50
2023-02-13T05:59:00.552Z,-1.64
2023-02-13T06:01:27.315Z,-1.67
2023-02-13T06:03:54.121Z,-1.55
2023-02-13T06:06:21.570Z,-1.35
2023-02-13T06:08:48.502Z,-1.41
2023-02-13T06:11:15.149Z,-1.39
2023-02-13T06:13:41.847Z,-1.48
2023-02-13T06:16:09.462Z,-1.39
2023-02-13T06:18:36.454Z,-1.29
2023-02-13T06:21:03.867Z,-1.22
2023-02-13T06:23:31.586Z,-1.32
2023-02-13T06:26:05.849Z,-1.19
2023-02-13T06:28:33.258Z,-0.63
2023-02-13T06:31:00.335Z,-0.91
2023-02-13T06:33:27.806Z,-0.43
2023-02-13T06:38:48.667Z,0.33
2023-02-13T06:41:15.338Z,0.80
2023-02-13T06:43:41.975Z,1.51
2023-02-13T06:46:09.697Z,2.76
2023-02-13T06:48:36.638Z,4.79
2023-02-13T06:51:03.411Z,4.10
2023-02-13T06:53:30.767Z,3.47
2023-02-13T06:55:57.567Z,3.69
2023-02-13T06:58:25.739Z,4.17
2023-02-13T07:00:53.209Z,3.89
2023-02-13T07:03:19.994Z,4.64
2023-02-13T07:05:46.752Z,4.81
2023-02-13T07:08:13.862Z,4.34
2023-02-13T07:10:42.018Z,4.45
2023-02-13T07:13:10.246Z,4.93
2023-02-13T07:15:38.246Z,5.06
2023-02-13T07:18:05.812Z,4.56
2023-02-13T07:20:32.984Z,5.11
2023-02-13T07:23:05.083Z,6.39
2023-02-13T07:25:32.520Z,5.11
2023-02-13T07:28:06.652Z,5.61
2023-02-13T07:30:34.610Z,5.87
2023-02-13T07:33:03.094Z,6.31
2023-02-13T07:35:30.136Z,6.22
2023-02-13T07:37:56.944Z,6.07
2023-02-13T07:40:23.685Z,5.42
2023-02-13T07:42:50.356Z,5.08
2023-02-13T07:45:17.188Z,6.11
2023-02-13T07:47:43.891Z,5.76
2023-02-13T07:50:11.324Z,5.37
2023-02-13T07:52:38.250Z,5.72
2023-02-13T07:55:06.273Z,6.59
2023-02-13T07:57:33.826Z,6.85
2023-02-13T08:00:00.614Z,5.78
2023-02-13T08:02:27.296Z,6.71
2023-02-13T08:04:54.092Z,7.28
2023-02-13T08:07:20.796Z,6.97
2023-02-13T08:10:06.066Z,6.56
2023-02-13T08:12:35.947Z,6.75
2023-02-13T08:15:03.175Z,8.00
2023-02-13T08:17:29.938Z,8.12
2023-02-13T08:19:56.593Z,8.28
2023-02-13T08:22:23.321Z,8.37
2023-02-13T08:24:50.004Z,7.67
2023-02-13T08:27:16.749Z,7.80
2023-02-13T08:29:43.480Z,8.66
2023-02-13T08:32:10.313Z,7.75
2023-02-13T08:34:37.303Z,7.39
2023-02-13T08:37:05.162Z,7.62
2023-02-13T08:39:31.987Z,7.99
2023-02-13T08:41:58.654Z,8.85
2023-02-13T08:44:25.587Z,8.46
2023-02-13T08:46:52.402Z,8.31
2023-02-13T08:49:19.148Z,8.02
2023-02-13T08:51:45.824Z,8.17
2023-02-13T08:54:12.477Z,8.22
2023-02-13T08:56:39.301Z,7.83
2023-02-13T08:59:05.950Z,8.05
2023-02-13T09:01:32.719Z,8.45
2023-02-13T09:03:59.471Z,8.75
2023-02-13T09:06:26.915Z,8.80
2023-02-13T09:08:53.987Z,8.17
2023-02-13T09:11:23.311Z,8.87
2023-02-13T09:13:53.613Z,9.59
2023-02-13T09:16:21.349Z,9.11
2023-02-13T09:18:49.538Z,9.35
2023-02-13T09:21:16.955Z,9.10
2023-02-13T09:23:44.078Z,8.53
2023-02-13T09:26:12.957Z,7.87
2023-02-13T09:28:40.692Z,7.74
2023-02-13T09:31:13.148Z,6.75
2023-02-13T09:33:41.770Z,6.86
2023-02-13T09:36:14.783Z,7.54
2023-02-13T09:38:45.215Z,7.40
2023-02-13T09:41:19.878Z,7.60
2023-02-13T09:43:54.612Z,8.85
2023-02-13T09:46:26.284Z,9.21
2023-02-13T09:48:56.583Z,8.42
2023-02-13T09:51:25.861Z,8.18
2023-02-13T09:53:59.945Z,8.88
2023-02-13T09:56:50.184Z,8.01
2023-02-13T09:59:28.083Z,8.84
2023-02-13T10:01:59.529Z,8.34
2023-02-13T10:05:21.104Z,8.68
2023-02-13T10:07:58.419Z,9.20
2023-02-13T10:10:38.631Z,9.75
2023-02-13T10:13:18.807Z,9.23
2023-02-13T10:15:57.934Z,9.48
2023-02-13T10:18:32.277Z,9.89
2023-02-13T10:21:02.544Z,9.85
2023-02-13T10:23:40.658Z,9.59
2023-02-13T10:26:42.791Z,9.78
2023-02-13T10:29:37.906Z,9.50
2023-02-13T10:32:09.739Z,9.27
2023-02-13T10:34:43.561Z,9.63
2023-02-13T10:37:21.773Z,9.59
2023-02-13T10:39:53.508Z,9.19
2023-02-13T10:42:39.449Z,9.57
2023-02-13T10:45:24.684Z,9.72
2023-02-13T10:48:15.447Z,9.49
2023-02-13T10:50:47.973Z,9.32
2023-02-13T10:53:42.234Z,9.22
2023-02-13T10:56:18.380Z,9.68
2023-02-13T10:59:06.102Z,9.75
2023-02-13T11:01:45.005Z,9.59
2023-02-13T11:04:17.998Z,8.77
2023-02-13T11:06:58.732Z,9.39
2023-02-13T11:09:26.329Z,9.27
2023-02-13T11:11:53.749Z,8.96
2023-02-13T11:14:22.864Z,9.48
2023-02-13T11:16:54.324Z,10.11
2023-02-13T11:19:32.870Z,10.56
2023-02-13T11:22:04.948Z,11.18
2023-02-13T11:24:32.629Z,11.59
2023-02-13T11:27:09.362Z,12.06
2023-02-13T11:29:37.942Z,11.09
2023-02-13T11:32:18.982Z,10.87
2023-02-13T11:34:46.519Z,11.50
2023-02-13T11:37:13.089Z,11.32
2023-02-13T11:39:44.125Z,10.97
2023-02-13T11:42:42.926Z,10.96
2023-02-13T11:45:24.928Z,11.40
2023-02-13T11:47:55.259Z,11.55
2023-02-13T11:50:36.333Z,11.03
2023-02-13T11:53:07.598Z,10.47
2023-02-13T11:55:39.837Z,11.40
2023-02-13T11:58:15.694Z,10.67
2023-02-13T12:00:43.549Z,10.60
2023-02-13T12:03:22.350Z,11.18
2023-02-13T12:06:15.028Z,10.84
2023-02-13T12:08:45.067Z,11.14
2023-02-13T12:11:46.416Z,10.70
2023-02-13T12:14:20.100Z,11.27
2023-02-13T12:17:07.133Z,9.83
2023-02-13T12:19:42.387Z,10.07
2023-02-13T12:22:30.267Z,10.55
2023-02-13T12:25:15.703Z,11.09
2023-02-13T12:27:50.590Z,10.45
2023-02-13T12:30:54.661Z,11.51
2023-02-13T12:33:30.854Z,10.76
2023-02-13T12:36:10.614Z,11.56
2023-02-13T12:38:43.330Z,11.85
2023-02-13T12:41:18.875Z,11.88
2023-02-13T12:43:51.652Z,12.26
2023-02-13T12:46:31.173Z,11.77
2023-02-13T12:49:16.283Z,11.46
2023-02-13T12:52:01.171Z,11.10
2023-02-13T12:54:41.370Z,11.06
2023-02-13T12:57:26.395Z,10.72
2023-02-13T13:00:11.401Z,11.27
2023-02-13T13:02:41.084Z,11.67
2023-02-13T13:05:27.526Z,12.73
2023-02-13T13:08:08.005Z,12.22
2023-02-13T13:10:45.496Z,11.38
2023-02-13T13:13:24.122Z,11.15
2023-02-13T13:16:06.840Z,11.34
2023-02-13T13:18:42.274Z,11.20
2023-02-13T13:21:46.435Z,11.27
2023-02-13T13:24:41.051Z,11.26
2023-02-13T13:27:34.718Z,10.86
2023-02-13T13:30:14.374Z,11.15
2023-02-13T13:32:43.202Z,11.42
2023-02-13T13:35:15.714Z,10.85
2023-02-13T13:38:03.517Z,10.94
2023-02-13T13:40:42.235Z,10.42
2023-02-13T13:43:22.818Z,10.39
2023-02-13T13:46:16.488Z,10.00
2023-02-13T13:48:55.846Z,10.30
2023-02-13T13:51:23.062Z,10.06
2023-02-13T13:54:15.813Z,10.15
2023-02-13T13:56:54.781Z,10.20
2023-02-13T13:59:33.643Z,10.15
2023-02-13T14:02:18.843Z,10.32
2023-02-13T14:05:18.971Z,10.41
2023-02-13T14:07:47.044Z,10.31
2023-02-13T14:10:25.478Z,10.15
2023-02-13T14:12:57.997Z,10.11
2023-02-13T14:15:39.905Z,9.92
2023-02-13T14:18:11.730Z,9.77
2023-02-13T14:20:50.559Z,9.70
2023-02-13T14:23:38.736Z,9.74
2023-02-13T14:26:17.644Z,9.68
2023-02-13T14:29:10.339Z,9.82
2023-02-13T14:31:40.717Z,9.65
2023-02-13T14:34:17.808Z,9.73
2023-02-13T14:36:47.986Z,9.58
2023-02-13T14:39:35.965Z,9.53
2023-02-13T14:42:25.251Z,9.36
2023-02-13T14:44:56.455Z,9.41
2023-02-13T14:47:32.388Z,9.57
2023-02-13T14:50:02.372Z,9.68
2023-02-13T14:52:43.377Z,9.71
2023-02-13T14:55:36.613Z,9.79
2023-02-13T14:58:18.766Z,9.93
2023-02-13T15:01:21.468Z,9.95
2023-02-13T15:03:54.787Z,9.77
2023-02-13T15:06:29.602Z,9.86
2023-02-13T15:09:01.887Z,9.75
2023-02-13T15:11:36.155Z,9.83
2023-02-13T15:14:17.766Z,9.92
2023-02-13T15:16:49.128Z,9.63
2023-02-13T15:19:20.851Z,10.01
2023-02-13T15:22:07.863Z,10.05
2023-02-13T15:24:46.239Z,9.79
2023-02-13T15:27:41.156Z,9.85
2023-02-13T15:30:24.269Z,9.74
2023-02-13T15:33:21.431Z,9.79
2023-02-13T15:35:55.876Z,9.86
2023-02-13T15:38:34.453Z,9.68
2023-02-13T15:41:20.542Z,9.67
2023-02-13T15:43:50.325Z,9.74
2023-02-13T15:46:20.000Z,9.61
2023-02-13T15:48:47.663Z,9.37
2023-02-13T15:51:23.458Z,9.11
2023-02-13T15:53:55.280Z,8.88
2023-02-13T15:56:22.340Z,8.93
2023-02-13T15:58:50.301Z,8.92
2023-02-13T16:01:17.954Z,8.76
2023-02-13T16:03:49.343Z,8.79
2023-02-13T16:06:20.038Z,8.72
2023-02-13T16:08:58.305Z,8.54
2023-02-13T16:11:39.670Z,8.49
2023-02-13T16:14:07.991Z,8.28
2023-02-13T16:16:53.421Z,8.27
2023-02-13T16:19:27.627Z,8.46
2023-02-13T16:21:57.358Z,8.34
2023-02-13T16:24:26.225Z,7.92
2023-02-13T16:26:53.715Z,7.76
2023-02-13T16:29:29.201Z,7.85
2023-02-13T16:32:05.290Z,7.90
2023-02-13T16:34:32.466Z,7.84
2023-02-13T16:36:59.248Z,7.58
2023-02-13T16:39:32.094Z,7.46
2023-02-13T16:42:00.725Z,7.51
2023-02-13T16:44:32.814Z,7.59
2023-02-13T16:47:05.380Z,7.69
2023-02-13T16:49:36.888Z,7.29
2023-02-13T16:52:12.513Z,7.17
2023-02-13T16:54:54.509Z,7.37
2023-02-13T16:57:26.503Z,7.54
2023-02-13T16:59:55.785Z,7.61
2023-02-13T17:02:29.580Z,7.66
2023-02-13T17:05:08.426Z,7.24
2023-02-13T17:07:41.649Z,7.35
2023-02-13T17:10:17.566Z,7.39
2023-02-13T17:12:45.820Z,7.05
2023-02-13T17:15:14.706Z,7.21
2023-02-13T17:17:41.626Z,7.31
2023-02-13T17:20:09.615Z,7.13
2023-02-13T17:22:45.369Z,6.83
2023-02-13T17:25:33.622Z,6.74
2023-02-13T17:28:07.016Z,6.71
2023-02-13T17:30:33.996Z,6.68
2023-02-13T17:33:14.829Z,6.56
2023-02-13T17:35:41.774Z,6.32
2023-02-13T17:38:09.913Z,6.42
2023-02-13T17:40:37.249Z,6.25
2023-02-13T17:43:04.730Z,5.92
2023-02-13T17:45:34.263Z,5.64
2023-02-13T17:48:01.013Z,5.21
2023-02-13T17:50:29.908Z,4.90
2023-02-13T17:52:57.491Z,4.76
2023-02-13T17:55:30.192Z,4.69
2023-02-13T17:57:58.818Z,4.72
2023-02-13T18:00:28.202Z,4.61
2023-02-13T18:02:55.499Z,4.41
2023-02-13T18:05:22.404Z,4.15
2023-02-13T18:07:49.595Z,3.86
2023-02-13T18:10:37.466Z,3.84
2023-02-13T18:13:04.808Z,3.71
2023-02-13T18:15:38.859Z,3.64
2023-02-13T18:18:05.681Z,3.68
2023-02-13T18:20:32.734Z,3.89
2023-02-13T18:23:05.586Z,4.20
2023-02-13T18:25:32.205Z,4.08
2023-02-13T18:27:58.882Z,3.87
2023-02-13T18:30:25.948Z,3.93
2023-02-13T18:32:54.624Z,3.96
2023-02-13T18:35:22.819Z,4.03
2023-02-13T18:37:49.872Z,4.14
2023-02-13T18:40:17.710Z,4.28
2023-02-13T18:42:44.972Z,4.43
2023-02-13T18:45:12.290Z,4.21
2023-02-13T18:47:40.335Z,3.60
2023-02-13T18:50:07.909Z,3.38
2023-02-13T18:52:35.313Z,3.30
2023-02-13T18:55:02.330Z,3.28
2023-02-13T18:57:29.225Z,3.52
2023-02-13T18:59:55.988Z,3.54
2023-02-13T19:02:23.729Z,3.55
2023-02-13T19:04:50.462Z,3.30
2023-02-13T19:07:17.190Z,3.04
2023-02-13T19:09:44.505Z,3.20
2023-02-13T19:12:11.262Z,3.27
2023-02-13T19:14:38.564Z,3.30
2023-02-13T19:17:05.730Z,3.38
2023-02-13T19:19:32.492Z,3.22
2023-02-13T19:21:59.196Z,2.99
2023-02-13T19:24:25.890Z,3.14
2023-02-13T19:26:52.618Z,2.66
2023-02-13T19:29:19.437Z,2.61
2023-02-13T19:31:46.485Z,2.35
2023-02-13T19:34:13.313Z,2.43
2023-02-13T19:36:40.044Z,2.25
2023-02-13T19:39:09.120Z,2.12
2023-02-13T19:41:36.728Z,2.22
2023-02-13T19:44:05.375Z,2.01
2023-02-13T19:46:33.035Z,2.24
2023-02-13T19:49:00.492Z,2.07
2023-02-13T19:51:32.338Z,2.36
2023-02-13T19:54:05.733Z,2.60
2023-02-13T19:56:36.560Z,2.77
2023-02-13T19:59:04.325Z,2.80
2023-02-13T20:01:32.076Z,2.86
2023-02-13T20:03:59.213Z,2.98
2023-02-13T20:06:31.788Z,3.12
2023-02-13T20:09:00.155Z,2.99
2023-02-13T20:11:26.941Z,2.95
2023-02-13T20:13:58.107Z,3.07
2023-02-13T20:16:24.870Z,3.11
2023-02-13T20:18:51.706Z,2.70
2023-02-13T20:21:19.124Z,2.22
2023-02-13T20:23:50.920Z,2.10
2023-02-13T20:26:18.070Z,1.92
2023-02-13T20:28:46.392Z,1.63
2023-02-13T20:31:16.021Z,1.43
2023-02-13T20:33:43.385Z,1.29
2023-02-13T20:36:15.616Z,1.27
2023-02-13T20:38:42.858Z,1.34
2023-02-13T20:41:18.119Z,1.17
2023-02-13T20:43:45.628Z,1.14
2023-02-13T20:46:13.373Z,1.00
2023-02-13T20:48:40.599Z,1.14
2023-02-13T20:51:11.696Z,1.17
2023-02-13T20:53:40.328Z,1.42
2023-02-13T20:56:16.294Z,1.40
2023-02-13T20:58:45.108Z,1.27
2023-02-13T21:01:20.291Z,1.11
2023-02-13T21:03:50.047Z,1.05
2023-02-13T21:06:16.821Z,0.48
2023-02-13T21:08:43.869Z,0.94
2023-02-13T21:11:10.635Z,0.96
2023-02-13T21:13:42.696Z,0.68
2023-02-13T21:16:12.539Z,0.71
2023-02-13T21:18:40.527Z,0.78
2023-02-13T21:21:08.424Z,0.73
2023-02-13T21:23:35.802Z,0.60
2023-02-13T21:26:04.855Z,0.57
2023-02-13T21:28:31.772Z,0.46
2023-02-13T21:30:59.106Z,0.65
2023-02-13T21:33:25.911Z,1.01
2023-02-13T21:36:00.693Z,1.10
2023-02-13T21:38:27.479Z,1.09
2023-02-13T21:40:54.095Z,0.85
2023-02-13T21:43:22.959Z,0.54
2023-02-13T21:45:49.783Z,0.59
2023-02-13T21:48:16.503Z,0.84
2023-02-13T21:50:43.145Z,1.12
2023-02-13T21:53:09.830Z,1.14
2023-02-13T21:55:36.528Z,1.09
2023-02-13T21:58:03.235Z,0.94
2023-02-13T22:00:29.995Z,1.15
2023-02-13T22:02:56.676Z,1.06
2023-02-13T22:08:17.393Z,0.69
2023-02-13T22:10:53.421Z,0.69
2023-02-13T22:13:20.394Z,0.69
2023-02-13T22:15:47.132Z,1.06
2023-02-13T22:18:13.769Z,1.16
2023-02-13T22:20:40.562Z,1.12
2023-02-13T22:23:07.191Z,0.94
2023-02-13T22:25:33.821Z,0.89
2023-02-13T22:28:00.533Z,0.85
2023-02-13T22:30:27.402Z,0.88
2023-02-13T22:32:54.080Z,0.98
2023-02-13T22:35:20.762Z,1.11
2023-02-13T22:37:47.433Z,1.08
2023-02-13T22:40:14.374Z,0.93
2023-02-13T22:42:41.033Z,1.14
2023-02-13T22:45:08.075Z,0.94
2023-02-13T22:47:34.762Z,0.96
2023-02-13T22:50:01.460Z,0.83
2023-02-13T22:52:28.312Z,0.88
2023-02-13T22:54:54.974Z,1.18
2023-02-13T22:57:21.659Z,1.43
2023-02-13T22:59:48.345Z,1.40
2023-02-13T23:02:15.059Z,0.97
2023-02-13T23:04:42.030Z,0.74
2023-02-13T23:07:08.805Z,0.62
2023-02-13T23:09:35.472Z,0.29
2023-02-13T23:12:20.599Z,0.12
2023-02-13T23:14:47.221Z,-0.12
2023-02-13T23:17:32.764Z,-0.21
2023-02-13T23:19:59.562Z,-0.48
2023-02-13T23:22:26.210Z,-0.50
2023-02-13T23:24:52.911Z,-0.76
2023-02-13T23:27:19.570Z,-0.70
2023-02-13T23:29:46.250Z,-0.76
2023-02-13T23:32:13.096Z,-0.97
2023-02-13T23:34:39.847Z,-1.06
2023-02-13T23:37:06.598Z,-1.15
2023-02-13T23:39:33.346Z,-1.28
2023-02-13T23:42:00.001Z,-1.23
2023-02-13T23:44:26.757Z,-1.14
2023-02-13T23:46:53.514Z,-1.07
2023-02-13T23:49:21.082Z,-0.99
2023-02-13T23:51:48.579Z,-1.08
2023-02-13T23:54:21.766Z,-1.05
2023-02-13T23:56:53.695Z,-0.88
2023-02-13T23:59:22.543Z,-1.16
